Time;durP1;ratioP1;P1;durP2;ratioP2;P2;SDS_P1;SDS_P2;PMS_P1;PMS_P2;Temp;Humidity;BMP_temperature;BMP_pressure;BME280_temperature;BME280_humidity;BME280_pressure;Samples;Min_cycle;Max_cycle;Signal;HPM_P1;HPM_P2
2022/01/23 00:01:51;;;;;;;13.50;6.03;;;;;;;-2.48;66.32;100717.55;126285;1099;104146;-79
2022/01/23 00:04:24;;;;;;;15.80;5.40;;;;;;;-2.48;66.52;100711.52;126304;1099;104159;-80
2022/01/23 00:07:02;;;;;;;15.35;6.20;;;;;;;-2.47;65.93;100710.77;126373;1099;104143;-80
2022/01/23 00:09:34;;;;;;;15.17;5.87;;;;;;;-2.48;67.00;100714.08;126287;1099;105678;-79
2022/01/23 00:12:11;;;;;;;12.83;5.50;;;;;;;-2.48;66.87;100703.80;126243;1099;104137;-80
2022/01/23 00:17:34;;;;;;;14.33;5.47;;;;;;;-2.47;66.95;100703.05;126355;1099;104150;-80
2022/01/23 00:20:09;;;;;;;13.63;5.40;;;;;;;-2.50;66.39;100703.66;126433;1099;104265;-80
2022/01/23 00:22:44;;;;;;;15.10;5.60;;;;;;;-2.50;66.47;100695.95;126374;1099;104150;-80
2022/01/23 00:31:00;;;;;;;15.00;5.20;;;;;;;-2.50;67.31;100697.63;126308;1099;104275;-80
2022/01/23 00:33:34;;;;;;;15.13;5.80;;;;;;;-2.49;67.20;100705.48;126245;1099;104730;-80
2022/01/23 00:36:06;;;;;;;10.73;5.03;;;;;;;-2.50;66.61;100705.34;126336;1099;104306;-80
2022/01/23 00:38:44;;;;;;;14.00;5.70;;;;;;;-2.48;66.37;100699.55;126293;1099;104146;-80
2022/01/23 00:41:16;;;;;;;11.60;4.80;;;;;;;-2.46;67.14;100699.70;126309;1099;104309;-79
2022/01/23 00:43:49;;;;;;;14.87;5.30;;;;;;;-2.47;67.10;100698.80;126334;1099;104222;-81
2022/01/23 00:46:32;;;;;;;12.43;4.53;;;;;;;-2.48;67.14;100706.38;126392;1099;104168;-81
2022/01/23 00:49:24;;;;;;;11.13;4.73;;;;;;;-2.48;67.26;100698.66;126342;1099;104178;-81
2022/01/23 00:51:56;;;;;;;10.97;5.10;;;;;;;-2.48;67.02;100706.38;126407;1099;104292;-81
2022/01/23 00:54:29;;;;;;;13.00;4.80;;;;;;;-2.49;66.69;100708.05;126408;1099;104876;-79
2022/01/23 00:57:01;;;;;;;11.30;5.07;;;;;;;-2.48;66.27;100701.23;126290;1099;104239;-79
2022/01/23 00:59:34;;;;;;;14.33;4.80;;;;;;;-2.47;67.13;100711.66;126214;1099;104159;-81
2022/01/23 01:02:08;;;;;;;12.13;4.50;;;;;;;-2.49;66.77;100709.70;126351;1099;104143;-80
2022/01/23 01:04:40;;;;;;;11.37;4.50;;;;;;;-2.48;66.58;100698.66;126383;1099;104178;-79
2022/01/23 01:07:11;;;;;;;10.40;4.27;;;;;;;-2.47;67.14;100697.91;126331;1099;104338;-81
2022/01/23 01:09:50;;;;;;;12.47;5.17;;;;;;;-2.49;66.32;100692.63;126264;1099;104269;-80
2022/01/23 01:12:27;;;;;;;8.80;4.10;;;;;;;-2.48;67.29;100693.52;126302;1099;104216;-80
2022/01/23 01:15:26;;;;;;;11.87;4.80;;;;;;;-2.48;66.66;100696.09;126410;1098;104146;-79
2022/01/23 01:32:11;;;;;;;9.67;4.40;;;;;;;-2.47;67.11;100698.80;126383;1098;104185;-79
2022/01/23 01:34:49;;;;;;;10.57;4.53;;;;;;;-2.47;67.06;100698.80;126336;1099;104255;-80
2022/01/23 01:37:23;;;;;;;11.67;4.40;;;;;;;-2.48;66.92;100702.13;126358;1099;104197;-80
2022/01/23 01:39:54;;;;;;;11.80;5.00;;;;;;;-2.47;66.81;100697.91;126253;1099;104140;-80
2022/01/23 01:42:26;;;;;;;9.30;4.40;;;;;;;-2.49;66.18;100709.70;126223;1099;104293;-80
2022/01/23 01:44:58;;;;;;;12.27;4.67;;;;;;;-2.49;66.90;100709.70;126389;1099;104149;-80
2022/01/23 01:47:52;;;;;;;11.13;4.60;;;;;;;-2.52;67.15;100702.63;126362;1099;104134;-80
2022/01/23 01:50:24;;;;;;;12.53;4.90;;;;;;;-2.53;66.30;100708.53;126244;1099;104226;-80
2022/01/23 01:52:56;;;;;;;12.30;4.50;;;;;;;-2.54;66.59;100702.50;126284;1099;104149;-80
2022/01/23 01:55:35;;;;;;;9.83;4.27;;;;;;;-2.55;66.70;100708.39;126345;1099;104144;-80
2022/01/23 01:58:21;;;;;;;12.30;4.77;;;;;;;-2.56;67.17;100705.67;126345;1099;104146;-81
2022/01/23 02:10:22;;;;;;;11.80;4.43;;;;;;;-2.54;66.66;100722.13;126298;1097;104204;-81
2022/01/23 02:25:28;;;;;;;11.23;5.10;;;;;;;-2.49;66.48;100736.32;125136;1100;104348;-81
2022/01/23 02:50:49;;;;;;;11.00;4.10;;;;;;;-2.71;68.28;100739.48;126337;1097;104165;-82
2022/01/23 02:53:37;;;;;;;13.10;4.77;;;;;;;-2.73;68.03;100738.45;126349;1099;110788;-81
2022/01/23 02:56:19;;;;;;;10.57;4.17;;;;;;;-2.76;67.57;100735.60;126267;1099;104125;-81
2022/01/23 02:59:00;;;;;;;10.13;4.50;;;;;;;-2.77;68.06;100732.89;126384;1099;104223;-81
2022/01/23 03:01:34;;;;;;;11.60;4.33;;;;;;;-2.78;67.81;100729.40;126220;1099;104203;-81
2022/01/23 03:04:35;;;;;;;10.77;4.17;;;;;;;-2.81;67.33;100741.06;126386;1099;104139;-80
2022/01/23 03:10:29;;;;;;;10.50;4.53;;;;;;;-2.84;67.75;100731.40;126344;1099;104271;-80
2022/01/23 03:24:02;;;;;;;11.87;4.00;;;;;;;-2.82;67.68;100732.47;126288;1099;104194;-80
2022/01/23 03:25:02;;;;;;;13.60;5.03;;;;;;;-2.81;68.26;100730.80;126380;1099;104217;-81
2022/01/23 03:28:04;;;;;;;11.60;4.53;;;;;;;-2.82;68.75;100731.55;126368;1099;104146;-81
2022/01/23 03:30:39;;;;;;;11.80;4.87;;;;;;;-2.87;68.49;100731.11;126345;1099;104143;-81
2022/01/23 03:33:10;;;;;;;14.20;4.83;;;;;;;-2.91;68.86;100724.80;126348;1099;104162;-81
2022/01/23 03:35:46;;;;;;;10.13;4.33;;;;;;;-2.93;69.29;100731.47;126394;1099;104217;-81
2022/01/23 03:38:17;;;;;;;13.90;5.00;;;;;;;-2.98;69.04;100729.22;126404;1099;104179;-80
2022/01/23 03:40:48;;;;;;;19.07;5.53;;;;;;;-3.01;69.01;100728.94;126357;1099;104219;-81
2022/01/23 03:43:27;;;;;;;11.70;4.50;;;;;;;-3.02;69.09;100735.75;126313;1099;104187;-81
2022/01/23 03:46:20;;;;;;;13.30;5.10;;;;;;;-3.05;68.77;100727.77;126368;1099;104194;-80
2022/01/23 03:51:44;;;;;;;11.53;4.80;;;;;;;-3.03;67.86;100727.91;126257;1099;104207;-81
2022/01/23 03:54:15;;;;;;;14.57;5.20;;;;;;;-3.03;68.71;100733.94;126319;1099;104188;-80
2022/01/23 03:56:53;;;;;;;12.97;4.93;;;;;;;-3.02;68.35;100732.26;126278;1099;104198;-80
2022/01/23 03:59:24;;;;;;;13.13;4.97;;;;;;;-3.00;68.16;100734.22;126289;1099;104194;-81
2022/01/23 04:01:57;;;;;;;14.77;5.20;;;;;;;-3.00;68.53;100736.79;126320;1099;104194;-80
2022/01/23 04:04:39;;;;;;;12.00;4.73;;;;;;;-3.00;68.74;100735.89;126280;1099;104220;-81
2022/01/23 04:07:15;;;;;;;15.20;5.60;;;;;;;-3.02;68.23;100733.19;126304;1099;104322;-80
2022/01/23 04:09:48;;;;;;;15.20;6.10;;;;;;;-3.01;68.94;100742.67;126285;1099;104257;-80
2022/01/23 04:12:34;;;;;;;14.10;5.77;;;;;;;-3.04;69.09;100739.81;126251;1099;104205;-80
2022/01/23 04:15:14;;;;;;;13.37;5.53;;;;;;;-3.09;69.47;100738.49;126288;1099;110813;-80
2022/01/23 04:20:46;;;;;;;14.30;5.50;;;;;;;-3.14;69.07;100732.03;125436;1099;104386;-80
2022/01/23 04:31:53;;;;;;;12.57;5.10;;;;;;;-3.22;68.83;100727.86;126160;1099;104210;-80
2022/01/23 04:34:34;;;;;;;14.20;5.53;;;;;;;-3.20;69.31;100726.33;125237;1099;104430;-81
2022/01/23 04:45:40;;;;;;;15.20;5.90;;;;;;;-3.18;70.12;100724.80;126508;1099;102060;-81
2022/01/23 04:59:55;;;;;;;16.47;6.00;;;;;;;-3.07;69.12;100726.69;125052;1105;104313;-82
2022/01/23 05:02:59;;;;;;;15.90;6.23;;;;;;;-3.05;69.58;100735.47;125167;1102;107732;-81
2022/01/23 05:05:58;;;;;;;16.90;7.00;;;;;;;-3.05;68.93;100735.47;125269;1102;104220;-81
2022/01/23 05:08:46;;;;;;;16.70;6.13;;;;;;;-3.03;69.02;100733.04;125106;1102;104232;-81
2022/01/23 05:11:56;;;;;;;15.47;6.37;;;;;;;-3.06;68.98;100733.65;125075;1102;104155;-80
2022/01/23 05:14:32;;;;;;;13.63;5.90;;;;;;;-3.05;69.37;100738.03;125123;1102;104176;-80
2022/01/23 05:17:07;;;;;;;16.50;6.03;;;;;;;-3.05;69.91;100729.41;124916;1102;104360;-80
2022/01/23 05:19:43;;;;;;;16.43;6.20;;;;;;;-3.02;68.75;100727.12;125184;1102;104143;-80
2022/01/23 05:22:23;;;;;;;16.33;6.00;;;;;;;-2.98;68.89;100727.55;125122;1102;104143;-80
2022/01/23 05:24:58;;;;;;;17.87;6.57;;;;;;;-2.95;68.85;100727.84;125163;1102;104140;-80
2022/01/23 05:27:32;;;;;;;17.20;6.33;;;;;;;-2.95;69.54;100734.65;125182;1102;104243;-80
2022/01/23 05:30:05;;;;;;;15.72;6.33;;;;;;;-2.93;69.46;100727.98;125112;1102;104169;-80
2022/01/23 05:32:39;;;;;;;16.53;6.87;;;;;;;-2.89;69.85;100733.55;125102;1102;104210;-80
2022/01/23 05:35:17;;;;;;;17.60;6.87;;;;;;;-2.84;69.28;100733.08;125096;1102;104243;-80
2022/01/23 05:37:49;;;;;;;19.20;7.30;;;;;;;-2.79;69.41;100730.19;125130;1101;104211;-80
2022/01/23 05:40:26;;;;;;;15.87;6.70;;;;;;;-2.74;69.64;100730.61;125141;1102;104192;-82
2022/01/23 05:43:04;;;;;;;16.23;6.57;;;;;;;-2.68;69.97;100737.95;125174;1102;104207;-80
2022/01/23 05:45:41;;;;;;;16.20;6.57;;;;;;;-2.63;69.43;100736.73;125196;1102;104175;-80
2022/01/23 05:48:11;;;;;;;;;;;;;;;-2.61;70.34;100741.23;125251;1101;104175;-81
2022/01/23 05:51:10;;;;;;;20.77;7.60;;;;;;;-2.55;70.12;100746.03;125189;1102;104197;-81
2022/01/23 05:54:04;;;;;;;16.83;7.33;;;;;;;-2.51;69.77;100760.95;125265;1102;117800;-81
2022/01/23 05:57:03;;;;;;;19.93;7.47;;;;;;;-2.48;69.63;100758.66;125143;1102;104159;-81
2022/01/23 05:59:57;;;;;;;18.67;7.57;;;;;;;-2.46;70.16;100761.38;125196;1102;104598;-81
2022/01/23 06:02:31;;;;;;;17.90;6.90;;;;;;;-2.43;69.86;100762.58;125105;1101;104204;-81
2022/01/23 06:05:01;;;;;;;;;;;;;;;-2.41;70.54;100760.15;125258;1102;104168;-81
2022/01/23 06:07:55;;;;;;;21.50;7.47;;;;;;;-2.40;69.89;100761.94;124957;1102;105086;-81
2022/01/23 06:10:28;;;;;;;18.43;7.40;;;;;;;-2.37;70.00;100763.14;125030;1102;104204;-81
2022/01/23 06:13:03;;;;;;;19.82;7.90;;;;;;;-2.39;69.36;100767.22;125031;1102;104229;-81
2022/01/23 06:15:34;;;;;;;;;;;;;;;-2.39;69.79;100767.22;125019;1102;104169;-82
2022/01/23 06:18:06;;;;;;;17.33;7.07;;;;;;;-2.43;69.52;100771.93;125086;1102;104376;-81
2022/01/23 06:20:57;;;;;;;20.60;8.13;;;;;;;-2.49;71.00;100766.23;125122;1102;104303;-81
2022/01/23 06:24:00;;;;;;;18.50;7.23;;;;;;;-2.51;71.17;100773.80;125073;1102;104149;-81
2022/01/23 06:26:48;;;;;;;18.67;7.53;;;;;;;-2.54;71.42;100782.15;125175;1102;104136;-81
2022/01/23 06:29:21;;;;;;;18.30;7.97;;;;;;;-2.56;71.23;100783.66;125212;1102;104148;-81
2022/01/23 06:31:55;;;;;;;17.53;7.17;;;;;;;-2.56;70.33;100785.33;125225;1102;104172;-80
2022/01/23 06:34:27;;;;;;;18.55;7.80;;;;;;;-2.56;69.88;100787.90;125141;1102;104213;-80
2022/01/23 06:36:59;;;;;;;18.13;7.67;;;;;;;-2.52;70.04;100784.86;125339;1102;104149;-80
2022/01/23 06:39:31;;;;;;;19.37;8.37;;;;;;;-2.48;70.91;100791.17;125204;1102;104422;-81
2022/01/23 06:42:05;;;;;;;19.95;7.78;;;;;;;-2.48;70.34;100781.79;125236;1102;104188;-81
2022/01/23 06:44:56;;;;;;;19.90;8.17;;;;;;;-2.44;70.37;100785.56;125230;1102;104169;-80
2022/01/23 06:47:29;;;;;;;18.50;7.47;;;;;;;-2.40;70.05;100783.42;125325;1102;103027;-80
2022/01/23 06:50:02;;;;;;;19.45;7.60;;;;;;;-2.38;71.12;100780.98;125253;1102;104255;-81
2022/01/23 06:52:34;;;;;;;18.63;7.63;;;;;;;-2.36;71.43;100784.59;125003;1102;104689;-81
2022/01/23 06:55:09;;;;;;;20.50;8.83;;;;;;;-2.35;70.47;100791.55;124935;1102;104220;-81
2022/01/23 06:57:42;;;;;;;20.43;7.63;;;;;;;-2.35;69.73;100786.41;125235;1102;104271;-81
2022/01/23 07:00:15;;;;;;;21.13;8.87;;;;;;;-2.35;71.06;100792.44;124982;1102;104176;-80
2022/01/23 07:03:05;;;;;;;18.60;8.00;;;;;;;-2.32;70.74;100796.05;125268;1102;104140;-80
2022/01/23 07:05:59;;;;;;;18.07;7.33;;;;;;;-2.33;71.78;100799.41;125306;1102;104198;-81
2022/01/23 07:08:50;;;;;;;22.27;8.07;;;;;;;-2.33;71.19;100800.30;125321;1102;104149;-81
2022/01/23 07:11:50;;;;;;;21.63;7.93;;;;;;;-2.29;71.71;100799.83;125051;1105;104146;-81
2022/01/23 07:14:42;;;;;;;20.13;8.37;;;;;;;-2.27;71.59;100803.43;125143;1102;104296;-81
2022/01/23 07:17:35;;;;;;;20.13;7.33;;;;;;;-2.20;70.58;100810.02;125242;1102;104130;-81
2022/01/23 07:20:14;;;;;;;18.03;7.47;;;;;;;-2.19;71.37;100805.02;124980;1102;104178;-81
2022/01/23 07:22:47;;;;;;;22.83;8.63;;;;;;;-2.19;71.37;100806.70;125039;1102;104191;-81
2022/01/23 07:25:18;;;;;;;23.13;8.57;;;;;;;-2.15;71.22;100807.88;125012;1102;104178;-80
2022/01/23 07:27:54;;;;;;;19.67;8.23;;;;;;;-2.12;70.85;100808.16;125255;1102;104315;-81
2022/01/23 07:30:34;;;;;;;19.17;8.37;;;;;;;-2.06;70.37;100811.28;125187;1102;104127;-82
2022/01/23 07:33:06;;;;;;;22.23;8.07;;;;;;;-2.00;71.07;100805.02;125013;1102;102998;-82
2022/01/23 07:35:38;;;;;;;20.30;7.90;;;;;;;-1.89;71.53;100803.41;125270;1102;104140;-82
2022/01/23 07:38:11;;;;;;;20.07;8.17;;;;;;;-1.75;70.63;100801.19;125318;1102;104150;-82
2022/01/23 07:41:12;;;;;;;21.80;8.37;;;;;;;-1.57;70.65;100800.25;125162;1102;104287;-80
2022/01/23 07:43:49;;;;;;;21.17;8.40;;;;;;;-1.45;70.70;100798.77;125243;1102;103992;-80
2022/01/23 07:46:21;;;;;;;22.23;8.23;;;;;;;-1.35;71.24;100805.61;125264;1102;104277;-80
2022/01/23 07:49:11;;;;;;;21.80;8.50;;;;;;;-1.21;71.41;100800.78;125312;1102;104143;-80
2022/01/23 07:51:42;;;;;;;21.23;8.63;;;;;;;-1.05;71.14;100803.01;125289;1102;104248;-80
2022/01/23 07:54:24;;;;;;;19.07;8.53;;;;;;;-0.95;71.39;100811.67;125294;1102;104303;-81
2022/01/23 07:57:13;;;;;;;21.83;8.70;;;;;;;-0.83;71.69;100810.91;125229;1102;107031;-80
2022/01/23 08:00:10;;;;;;;21.30;9.10;;;;;;;-0.79;70.33;100815.56;125237;1101;104185;-80
2022/01/23 08:02:47;;;;;;;20.63;8.67;;;;;;;-0.76;70.75;100808.99;125306;1101;104296;-81
2022/01/23 08:05:46;;;;;;;21.45;8.95;;;;;;;-0.76;70.88;100810.67;125236;1102;104198;-81
2022/01/23 08:08:41;;;;;;;20.27;8.10;;;;;;;-0.83;70.98;100811.80;125168;1102;104251;-80
2022/01/23 08:11:17;;;;;;;21.33;8.93;;;;;;;-1.00;70.81;100815.50;125109;1102;104683;-81
2022/01/23 08:13:52;;;;;;;22.97;8.57;;;;;;;-1.13;71.24;100818.69;125240;1102;104180;-81
2022/01/23 08:16:24;;;;;;;20.33;8.73;;;;;;;-1.23;71.22;100823.83;125141;1102;104226;-80
2022/01/23 08:18:57;;;;;;;19.27;7.87;;;;;;;-1.33;71.84;100821.20;125329;1102;104300;-81
2022/01/23 08:21:29;;;;;;;20.82;8.28;;;;;;;-1.38;71.52;100817.33;125314;1102;104150;-81
2022/01/23 08:24:01;;;;;;;21.13;8.57;;;;;;;-1.43;70.74;100819.49;125214;1102;104245;-81
2022/01/23 08:26:34;;;;;;;23.07;8.93;;;;;;;-1.48;70.90;100831.95;125317;1102;104201;-81
2022/01/23 08:29:07;;;;;;;23.30;9.88;;;;;;;-1.47;70.96;100828.59;125193;1102;104297;-81
2022/01/23 08:31:39;;;;;;;22.60;9.93;;;;;;;-1.45;71.67;100836.45;125193;1102;104178;-81
2022/01/23 08:34:12;;;;;;;20.83;8.93;;;;;;;-1.39;70.68;100831.84;125286;1102;104162;-81
2022/01/23 08:36:43;;;;;;;28.73;12.53;;;;;;;-1.37;71.44;100848.35;125266;1102;104149;-81
2022/01/23 08:39:21;;;;;;;24.43;10.80;;;;;;;-1.36;72.19;100852.72;125274;1102;104163;-81
2022/01/23 08:41:54;;;;;;;21.67;9.53;;;;;;;-1.39;72.33;100856.70;125251;1102;104226;-82
2022/01/23 08:44:30;;;;;;;21.03;8.47;;;;;;;-1.43;71.46;100855.53;125272;1102;104178;-82
2022/01/23 08:47:05;;;;;;;19.93;8.63;;;;;;;-1.46;71.38;100860.41;125244;1101;104146;-82
2022/01/23 08:52:26;;;;;;;19.37;7.57;;;;;;;-1.49;70.95;100863.59;125204;1102;104149;-81
2022/01/23 08:54:59;;;;;;;20.63;8.40;;;;;;;-1.53;71.52;100858.04;125297;1102;104274;-82
2022/01/23 08:57:31;;;;;;;21.73;8.40;;;;;;;-1.54;72.00;100866.52;125228;1102;104225;-80
2022/01/23 09:00:06;;;;;;;20.50;8.83;;;;;;;-1.56;72.37;100875.78;125298;1102;104168;-81
2022/01/23 09:02:38;;;;;;;22.13;9.50;;;;;;;-1.57;70.93;100867.17;125212;1102;104165;-81
2022/01/23 09:05:10;;;;;;;20.87;8.80;;;;;;;-1.58;72.43;100865.34;125287;1102;104159;-82
2022/01/23 09:07:42;;;;;;;21.50;9.47;;;;;;;-1.59;71.49;100863.56;125224;1102;104165;-81
2022/01/23 09:10:15;;;;;;;19.57;9.00;;;;;;;-1.63;71.37;100867.50;125216;1102;104175;-81
2022/01/23 09:13:04;;;;;;;20.20;8.47;;;;;;;-1.65;72.27;100863.91;125270;1102;104351;-81
2022/01/23 09:15:40;;;;;;;21.67;9.10;;;;;;;-1.57;71.97;100868.81;125285;1102;104195;-81
2022/01/23 09:18:12;;;;;;;20.77;8.33;;;;;;;-1.53;70.85;100874.37;125257;1101;104156;-81
2022/01/23 09:20:48;;;;;;;20.87;9.17;;;;;;;-1.49;71.25;100871.32;125323;1102;104191;-81
2022/01/23 09:23:21;;;;;;;21.40;9.13;;;;;;;-1.44;71.08;100874.31;125232;1102;104281;-81
2022/01/23 09:25:58;;;;;;;23.15;8.85;;;;;;;-1.37;70.97;100870.59;125219;1102;104150;-80
2022/01/23 09:28:32;;;;;;;20.13;8.43;;;;;;;-1.37;71.66;100874.09;125269;1102;104669;-81
2022/01/23 09:31:04;;;;;;;19.23;8.20;;;;;;;-1.36;71.15;100863.02;125331;1102;104146;-80
2022/01/23 09:33:37;;;;;;;21.00;8.37;;;;;;;-1.32;71.78;100870.25;125345;1102;104175;-81
2022/01/23 09:36:08;;;;;;;21.33;8.70;;;;;;;-1.34;71.04;100863.15;125245;1102;104146;-80
2022/01/23 09:38:41;;;;;;;20.90;8.67;;;;;;;-1.26;71.20;100862.18;125165;1102;104146;-81
2022/01/23 09:41:18;;;;;;;21.23;9.17;;;;;;;-1.15;71.82;100868.28;125196;1102;104313;-81
2022/01/23 09:43:50;;;;;;;20.20;8.57;;;;;;;-1.07;71.06;100858.66;125248;1102;104153;-81
2022/01/23 09:46:29;;;;;;;18.40;8.07;;;;;;;-1.01;71.77;100854.00;125225;1102;104155;-81
2022/01/23 09:49:01;;;;;;;21.27;8.10;;;;;;;-0.91;70.48;100849.79;125217;1101;104733;-81
2022/01/23 09:51:36;;;;;;;19.23;8.60;;;;;;;-0.80;70.81;100853.30;125229;1102;104152;-80
2022/01/23 09:54:09;;;;;;;20.37;8.73;;;;;;;-0.76;70.85;100855.38;125221;1102;104297;-81
2022/01/23 09:56:42;;;;;;;21.60;9.47;;;;;;;-0.73;71.39;100853.06;125233;1102;104245;-81
2022/01/23 09:59:15;;;;;;;19.75;8.78;;;;;;;-0.73;71.34;100854.75;125176;1102;104195;-81
2022/01/23 10:01:56;;;;;;;22.53;8.60;;;;;;;-0.71;71.77;100854.88;125244;1102;104246;-81
2022/01/23 10:04:27;;;;;;;21.60;8.97;;;;;;;-0.69;70.85;100856.80;125292;1102;104152;-80
2022/01/23 10:07:00;;;;;;;20.23;9.37;;;;;;;-0.63;71.31;100847.02;125248;1102;104191;-81
2022/01/23 10:09:33;;;;;;;22.47;9.40;;;;;;;-0.42;70.86;100850.54;125248;1102;104246;-81
2022/01/23 10:12:08;;;;;;;23.87;9.30;;;;;;;-0.33;71.01;100846.92;125307;1102;104255;-81
2022/01/23 10:14:40;;;;;;;24.43;9.23;;;;;;;-0.27;71.05;100840.59;125230;1102;104153;-81
2022/01/23 10:17:12;;;;;;;20.63;9.00;;;;;;;-0.13;70.69;100852.08;125243;1102;104153;-80
2022/01/23 10:19:45;;;;;;;19.03;8.00;;;;;;;-0.10;70.68;100859.18;125195;1102;104255;-80
2022/01/23 10:22:17;;;;;;;20.43;9.10;;;;;;;-0.13;70.42;100853.77;125270;1102;104152;-80
2022/01/23 10:24:49;;;;;;;20.10;8.20;;;;;;;-0.21;71.04;100850.54;125309;1102;104149;-79
2022/01/23 10:27:23;;;;;;;18.83;7.80;;;;;;;-0.28;71.24;100856.87;125219;1102;104175;-79
2022/01/23 10:29:54;;;;;;;18.40;8.43;;;;;;;-0.30;70.82;100857.50;125236;1102;104149;-80
2022/01/23 10:32:25;;;;;;;20.23;8.43;;;;;;;-0.23;70.52;100859.84;125201;1102;104198;-80
2022/01/23 10:34:59;;;;;;;20.17;8.43;;;;;;;-0.16;70.84;100862.14;125197;1102;104236;-80
2022/01/23 10:37:35;;;;;;;16.73;7.40;;;;;;;-0.15;70.29;100863.06;125201;1101;104169;-81
2022/01/23 10:40:11;;;;;;;17.30;7.40;;;;;;;-0.18;70.61;100868.85;125224;1102;104143;-81
2022/01/23 10:48:42;;;;;;;20.03;7.87;;;;;;;-0.40;70.17;100879.92;126321;1098;104166;-82
2022/01/23 10:51:26;;;;;;;20.23;8.00;;;;;;;-0.45;69.79;100880.29;126328;1098;104188;-82
2022/01/23 10:54:16;;;;;;;19.37;7.33;;;;;;;-0.55;69.52;100881.19;126295;1099;104175;-82
2022/01/23 10:57:03;;;;;;;19.67;7.77;;;;;;;-0.67;69.70;100891.36;126285;1099;104149;-81
2022/01/23 10:59:44;;;;;;;18.40;7.73;;;;;;;-0.76;69.92;100893.14;126233;1099;104213;-81
2022/01/23 11:02:21;;;;;;;19.33;8.27;;;;;;;-0.87;69.78;100892.20;126300;1099;104240;-81
2022/01/23 11:05:01;;;;;;;20.67;8.07;;;;;;;-0.92;69.49;100893.45;125385;1099;104204;-81
2022/01/23 11:07:34;;;;;;;19.97;8.00;;;;;;;-0.94;69.40;100895.00;126380;1099;104245;-81
2022/01/23 11:10:09;;;;;;;18.90;8.20;;;;;;;-0.94;70.16;100890.73;126241;1099;104144;-81
2022/01/23 11:17:21;;;;;;;18.63;7.83;;;;;;;-0.87;69.28;100894.78;126295;1099;104137;-81
2022/01/23 11:18:40;;;;;;;18.17;7.43;;;;;;;-0.74;69.23;100901.90;126342;1098;104152;-81
2022/01/23 11:21:23;;;;;;;18.63;7.93;;;;;;;-0.76;69.07;100903.45;126312;1099;104254;-81
2022/01/23 11:24:01;;;;;;;19.73;8.37;;;;;;;-0.77;69.24;100899.05;126394;1099;104153;-81
2022/01/23 11:26:32;;;;;;;20.93;9.70;;;;;;;-0.71;70.06;100893.55;126310;1099;104149;-81
2022/01/23 11:29:11;;;;;;;20.00;9.10;;;;;;;-0.67;68.92;100895.59;126345;1099;104210;-82
2022/01/23 11:31:43;;;;;;;19.30;7.90;;;;;;;-0.65;69.67;100907.85;126333;1099;109526;-82
2022/01/23 11:34:19;;;;;;;22.00;9.33;;;;;;;-0.60;69.87;100908.25;126332;1099;104660;-83
2022/01/23 11:36:51;;;;;;;20.67;8.80;;;;;;;-0.55;69.15;100906.97;126319;1099;104431;-82
2022/01/23 11:39:37;;;;;;;18.97;7.67;;;;;;;-0.53;69.40;100914.83;126305;1099;104242;-82
2022/01/23 11:51:04;;;;;;;21.87;9.03;;;;;;;-0.55;69.46;100923.36;126331;1099;104300;-82
2022/01/23 11:53:49;;;;;;;22.65;8.45;;;;;;;-0.50;69.24;100917.67;126359;1099;101684;-82
2022/01/23 11:56:57;;;;;;;18.80;8.10;;;;;;;-0.48;69.12;100923.86;126365;1099;104166;-82
2022/01/23 11:59:48;;;;;;;23.00;9.10;;;;;;;-0.45;69.28;100922.47;125272;1102;104306;-79
2022/01/23 12:02:31;;;;;;;22.33;9.10;;;;;;;-0.48;68.62;100921.28;125255;1102;104184;-81
2022/01/23 12:05:24;;;;;;;20.03;8.23;;;;;;;-0.56;69.92;100929.27;125328;1102;104373;-80
2022/01/23 12:08:34;;;;;;;20.53;8.47;;;;;;;-0.61;69.61;100925.41;125304;1102;104200;-81
2022/01/23 12:17:40;;;;;;;19.80;8.00;;;;;;;-0.67;67.79;100952.30;125298;1102;104191;-81
2022/01/23 12:20:13;;;;;;;18.73;7.03;;;;;;;-0.71;67.11;100948.55;125329;1102;104297;-81
2022/01/23 12:22:59;;;;;;;18.60;6.93;;;;;;;-0.79;66.94;100955.61;125301;1102;104229;-81
2022/01/23 12:25:39;;;;;;;20.80;7.33;;;;;;;-0.83;67.08;100961.25;125286;1102;104161;-82
2022/01/23 12:28:22;;;;;;;16.23;6.80;;;;;;;-0.92;67.30;100960.44;125361;1102;104689;-81
2022/01/23 12:30:56;;;;;;;14.53;6.10;;;;;;;-0.98;67.72;100965.97;125797;1099;104140;-82
2022/01/23 12:33:31;;;;;;;20.82;7.78;;;;;;;-0.96;68.09;100976.41;126264;1099;104214;-82
2022/01/23 12:36:14;;;;;;;18.20;7.90;;;;;;;-0.89;67.91;100985.58;126338;1099;105283;-82
2022/01/23 12:38:51;;;;;;;18.03;6.10;;;;;;;-1.00;67.53;101011.27;126383;1099;104172;-81
2022/01/23 12:41:32;;;;;;;20.50;6.97;;;;;;;-1.04;67.48;100986.03;126323;1099;104217;-82
2022/01/23 12:44:06;;;;;;;18.57;6.83;;;;;;;-1.17;68.90;100993.41;126388;1099;104179;-82
2022/01/23 12:46:43;;;;;;;15.23;6.60;;;;;;;-1.25;69.10;101000.44;126375;1099;104332;-82
2022/01/23 12:49:28;;;;;;;18.60;7.70;;;;;;;-1.33;69.39;100983.40;126288;1099;104172;-83
2022/01/23 12:52:18;;;;;;;21.27;8.30;;;;;;;-1.34;69.31;100999.60;126305;1099;104149;-82
2022/01/23 12:54:56;;;;;;;20.07;8.13;;;;;;;-1.32;68.70;100993.84;126260;1099;104178;-83
2022/01/23 12:57:41;;;;;;;21.07;8.60;;;;;;;-1.32;69.62;100986.11;126371;1099;104163;-81
2022/01/23 13:00:23;;;;;;;21.00;9.20;;;;;;;-1.31;70.03;100994.73;126373;1099;104156;-81
2022/01/23 13:02:57;;;;;;;19.50;8.60;;;;;;;-1.29;69.53;100996.69;126267;1099;104291;-81
2022/01/23 13:05:29;;;;;;;20.83;8.87;;;;;;;-1.26;69.97;101001.23;126329;1099;105118;-81
2022/01/23 13:08:08;;;;;;;22.27;9.00;;;;;;;-1.26;69.72;101001.23;126260;1098;104155;-81
2022/01/23 13:11:08;;;;;;;23.23;9.93;;;;;;;-1.27;69.92;101008.02;126295;1099;104172;-81
2022/01/23 13:13:51;;;;;;;23.50;8.73;;;;;;;-1.28;69.37;101013.96;126269;1099;104214;-82
2022/01/23 13:16:31;;;;;;;22.60;9.70;;;;;;;-1.28;69.99;101015.61;126340;1099;104168;-83
2022/01/23 13:30:39;;;;;;;25.90;11.23;;;;;;;-1.38;69.25;101054.17;126424;1098;104158;-82
2022/01/23 13:33:19;;;;;;;23.53;9.97;;;;;;;-1.36;69.75;101055.21;126479;1098;104187;-82
2022/01/23 13:35:54;;;;;;;23.63;10.07;;;;;;;-1.34;70.57;101063.97;126570;1099;102027;-82
2022/01/23 13:38:25;;;;;;;21.57;9.20;;;;;;;-1.39;70.00;101054.92;126546;1099;104169;-81
2022/01/23 13:40:59;;;;;;;20.47;8.97;;;;;;;-1.39;69.71;101062.66;126452;1099;104265;-82
2022/01/23 13:52:21;;;;;;;23.37;9.33;;;;;;;-1.49;70.01;101066.95;125929;1099;104191;-82
2022/01/23 13:58:33;;;;;;;24.18;9.88;;;;;;;-1.58;69.91;101066.09;126243;1099;104239;-82
2022/01/23 14:03:54;;;;;;;23.07;9.07;;;;;;;-1.63;70.04;101083.68;126056;1099;104176;-82
2022/01/23 14:06:26;;;;;;;21.80;9.43;;;;;;;-1.66;70.11;101078.25;126391;1097;104143;-82
2022/01/23 14:09:09;;;;;;;24.97;9.63;;;;;;;-1.68;69.82;101077.20;126357;1099;101905;-82
2022/01/23 14:11:42;;;;;;;22.23;10.30;;;;;;;-1.71;70.24;101088.89;126334;1099;104181;-82
2022/01/23 14:14:16;;;;;;;21.50;9.23;;;;;;;-1.74;71.07;101086.03;126270;1099;104146;-82
2022/01/23 14:16:53;;;;;;;24.47;11.00;;;;;;;-1.75;71.07;101097.08;126274;1099;104130;-82
2022/01/23 14:19:27;;;;;;;21.73;9.00;;;;;;;-1.76;69.78;101102.97;126148;1099;104162;-82
2022/01/23 14:22:02;;;;;;;22.97;9.80;;;;;;;-1.78;70.00;101105.39;126250;1099;104235;-82
2022/01/23 14:24:37;;;;;;;23.90;9.60;;;;;;;-1.76;70.89;101111.61;126304;1099;104134;-81
2022/01/23 14:27:17;;;;;;;25.17;10.83;;;;;;;-1.75;70.13;101113.41;126324;1099;104194;-81
2022/01/23 14:29:55;;;;;;;21.63;9.93;;;;;;;-1.73;70.18;101119.62;126260;1099;104214;-81
2022/01/23 14:32:40;;;;;;;24.77;9.77;;;;;;;-1.72;70.35;101125.66;126269;1099;104185;-81
2022/01/23 14:35:18;;;;;;;23.73;9.97;;;;;;;-1.70;70.27;101127.63;126278;1099;104219;-82
2022/01/23 14:37:59;;;;;;;27.33;10.50;;;;;;;-1.69;69.89;101136.25;126307;1099;104213;-81
2022/01/23 14:40:31;;;;;;;25.17;10.83;;;;;;;-1.68;69.94;101140.64;126359;1099;104746;-81